Time;durP1;ratioP1;P1;durP2;ratioP2;P2;SDS_P1;SDS_P2;PMS_P1;PMS_P2;Temp;Humidity;BMP_temperature;BMP_pressure;BME280_temperature;BME280_humidity;BME280_pressure;Samples;Min_cycle;Max_cycle;Signal;HPM_P1;HPM_P2
2021/09/17 04:28:50;;;;;;;26.37;21.37;;;;;;;16.33;98.93;97419.42;1827967;78;20919;-61
2021/09/17 04:31:18;;;;;;;26.93;21.20;;;;;;;16.36;98.99;97418.19;1827872;78;21108;-62
2021/09/17 04:33:45;;;;;;;29.57;20.82;;;;;;;16.42;99.03;97416.81;1827909;78;21330;-62
2021/09/17 04:36:13;;;;;;;31.95;21.07;;;;;;;16.51;99.04;97414.55;1827823;78;20923;-61
2021/09/17 04:38:40;;;;;;;29.85;20.97;;;;;;;16.58;98.94;97416.14;1827866;78;20912;-61
2021/09/17 04:41:07;;;;;;;24.00;19.95;;;;;;;16.66;98.86;97412.50;1827871;78;21002;-60
2021/09/17 04:43:36;;;;;;;24.63;19.90;;;;;;;16.74;98.70;97415.64;1827947;78;21735;-61
2021/09/17 04:46:02;;;;;;;25.72;19.52;;;;;;;16.79;98.54;97410.75;1828031;78;20832;-61
2021/09/17 04:48:30;;;;;;;22.98;18.32;;;;;;;16.86;98.30;97404.78;1827716;78;20908;-61
2021/09/17 04:50:58;;;;;;;24.57;18.98;;;;;;;16.92;98.11;97415.56;1827700;78;20978;-61
2021/09/17 04:53:25;;;;;;;25.32;20.52;;;;;;;16.95;97.84;97406.77;1827811;78;20856;-61
2021/09/17 04:55:52;;;;;;;22.45;19.40;;;;;;;17.01;97.66;97413.48;1827810;78;21427;-62
2021/09/17 04:58:20;;;;;;;25.08;18.82;;;;;;;17.05;97.46;97410.33;1827482;78;20989;-62
2021/09/17 05:00:47;;;;;;;26.35;17.80;;;;;;;17.09;97.28;97415.27;1828002;78;21006;-61
2021/09/17 05:03:14;;;;;;;25.25;19.50;;;;;;;17.16;97.06;97419.52;1827708;78;20896;-60
2021/09/17 05:05:41;;;;;;;22.93;18.87;;;;;;;17.22;96.85;97424.12;1825789;78;20946;-61
2021/09/17 05:08:09;;;;;;;21.57;19.25;;;;;;;17.25;96.55;97426.90;1799999;78;21152;-63
2021/09/17 05:10:36;;;;;;;23.85;19.15;;;;;;;17.23;96.33;97429.17;1795172;80;20911;-65
2021/09/17 05:13:05;;;;;;;25.68;18.40;;;;;;;17.24;96.18;97422.61;1795183;79;20844;-63
2021/09/17 05:15:32;;;;;;;22.27;18.48;;;;;;;17.29;96.18;97422.36;1795186;80;20956;-62
2021/09/17 05:17:59;;;;;;;27.07;20.25;;;;;;;17.37;95.97;97418.72;1795331;79;20947;-62
2021/09/17 05:20:27;;;;;;;25.92;20.08;;;;;;;17.43;95.71;97416.55;1795070;80;21108;-62
2021/09/17 05:22:55;;;;;;;28.55;19.67;;;;;;;17.47;95.46;97412.00;1817843;78;20919;-61
2021/09/17 05:25:23;;;;;;;30.20;20.12;;;;;;;17.51;95.19;97409.64;1821858;78;20899;-62
2021/09/17 05:27:52;;;;;;;24.95;19.48;;;;;;;17.55;94.86;97409.15;1816538;78;21403;-62
2021/09/17 05:30:20;;;;;;;27.02;17.75;;;;;;;17.60;94.53;97404.83;1816348;79;20966;-62
2021/09/17 05:32:49;;;;;;;25.65;19.52;;;;;;;17.62;94.18;97405.82;1816370;79;20982;-63
2021/09/17 05:35:16;;;;;;;22.48;19.65;;;;;;;17.64;94.04;97404.34;1816392;79;20900;-62
2021/09/17 05:37:43;;;;;;;23.27;19.17;;;;;;;17.69;93.79;97398.66;1815835;79;20912;-62
2021/09/17 05:40:12;;;;;;;23.27;18.52;;;;;;;17.75;93.51;97410.83;1816042;79;20924;-62
2021/09/17 05:42:40;;;;;;;22.45;17.10;;;;;;;17.75;93.25;97405.41;1813474;78;21064;-64
2021/09/17 05:45:10;;;;;;;21.07;17.10;;;;;;;17.76;92.97;97404.25;1810078;79;21743;-63
2021/09/17 05:47:47;;;;;;;25.20;17.37;;;;;;;17.78;92.77;97403.33;1815699;79;20971;-62
2021/09/17 05:50:18;;;;;;;25.43;19.90;;;;;;;17.83;92.66;97401.52;1803383;79;20998;-62
2021/09/17 05:52:45;;;;;;;33.67;26.93;;;;;;;17.92;92.62;97400.76;1814962;79;20873;-63
2021/09/17 05:55:12;;;;;;;29.05;24.15;;;;;;;18.04;92.10;97400.66;1814882;79;21035;-63
2021/09/17 05:57:39;;;;;;;29.95;24.47;;;;;;;18.11;91.60;97404.88;1814848;79;21758;-62
2021/09/17 06:00:09;;;;;;;30.27;22.30;;;;;;;18.15;91.38;97398.97;1814861;79;20948;-62
2021/09/17 06:02:39;;;;;;;24.20;19.82;;;;;;;18.19;91.07;97401.97;1815275;79;21399;-62
2021/09/17 06:05:09;;;;;;;25.62;18.73;;;;;;;18.23;90.75;97400.71;1815270;79;21428;-62
2021/09/17 06:07:42;;;;;;;21.62;18.15;;;;;;;18.26;90.48;97402.69;1813674;78;21521;-62
2021/09/17 06:10:12;;;;;;;26.10;18.48;;;;;;;18.27;90.21;97397.50;1815114;79;21189;-62
2021/09/17 06:12:40;;;;;;;26.30;18.20;;;;;;;18.29;89.84;97397.92;1815318;79;20916;-63
2021/09/17 06:15:16;;;;;;;23.45;19.10;;;;;;;18.28;89.64;97397.70;1814508;79;21015;-62
2021/09/17 06:17:46;;;;;;;27.27;19.30;;;;;;;18.30;89.59;97389.43;1802918;77;20932;-62
2021/09/17 06:20:13;;;;;;;24.45;19.50;;;;;;;18.31;89.25;97389.66;1782741;80;21118;-61
2021/09/17 06:22:43;;;;;;;25.68;18.60;;;;;;;18.31;89.17;97388.86;1783165;79;21133;-63
2021/09/17 06:25:15;;;;;;;22.70;17.77;;;;;;;18.33;89.09;97390.64;1799729;79;21419;-61
2021/09/17 06:27:44;;;;;;;22.75;16.48;;;;;;;18.40;89.00;97386.17;1814865;79;20869;-63
2021/09/17 06:30:13;;;;;;;28.67;17.20;;;;;;;18.49;88.90;97387.34;1811705;79;20896;-63
2021/09/17 06:32:40;;;;;;;25.25;17.02;;;;;;;18.62;88.65;97392.07;1806852;79;20975;-62
2021/09/17 06:35:09;;;;;;;20.90;16.82;;;;;;;18.70;88.42;97387.78;1798665;79;21893;-62
2021/09/17 06:37:45;;;;;;;23.83;18.67;;;;;;;18.81;88.12;97386.65;1783129;80;20976;-62
2021/09/17 06:40:14;;;;;;;23.02;17.65;;;;;;;18.91;87.74;97385.48;1791435;77;21110;-63
2021/09/17 06:42:41;;;;;;;21.95;16.48;;;;;;;19.06;87.28;97387.34;1783193;80;21100;-62
2021/09/17 06:45:08;;;;;;;21.25;16.77;;;;;;;19.15;86.54;97384.38;1782115;79;21063;-62
2021/09/17 06:47:57;;;;;;;23.32;16.07;;;;;;;19.23;85.71;97382.59;1799071;79;21121;-62
2021/09/17 06:50:27;;;;;;;20.52;16.45;;;;;;;19.25;85.32;97385.72;1803809;79;21002;-63
2021/09/17 06:52:54;;;;;;;21.40;16.42;;;;;;;19.27;84.90;97386.94;1806038;79;20916;-63
2021/09/17 06:55:29;;;;;;;17.02;15.28;;;;;;;19.28;84.83;97390.44;1805972;78;20941;-63
2021/09/17 06:57:58;;;;;;;;;;;;;;;19.26;84.10;97380.52;1818927;78;20998;-61
2021/09/17 07:00:27;;;;;;;25.17;17.15;;;;;;;19.15;84.30;97383.62;1820897;78;21483;-61
2021/09/17 07:02:54;;;;;;;20.82;16.77;;;;;;;19.12;84.46;97382.41;1820642;78;20833;-62
2021/09/17 07:05:24;;;;;;;22.87;16.52;;;;;;;19.11;84.52;97381.63;1820989;78;20884;-63
2021/09/17 07:07:52;;;;;;;23.15;17.00;;;;;;;19.15;84.49;97378.19;1820835;78;20861;-61
2021/09/17 07:10:19;;;;;;;21.95;16.27;;;;;;;19.19;84.56;97379.03;1820784;78;20991;-63
2021/09/17 07:12:47;;;;;;;20.80;16.40;;;;;;;19.23;84.50;97373.09;1820230;78;21007;-62
2021/09/17 07:15:17;;;;;;;18.62;15.88;;;;;;;19.31;84.46;97375.59;1820535;78;20860;-62
2021/09/17 07:17:45;;;;;;;21.45;16.50;;;;;;;19.40;84.14;97377.52;1821356;78;20853;-62
2021/09/17 07:20:14;;;;;;;19.60;16.48;;;;;;;19.52;83.79;97367.83;1820995;78;21430;-62
2021/09/17 07:22:48;;;;;;;21.57;15.68;;;;;;;19.67;83.62;97372.90;1819972;78;21501;-65
2021/09/17 07:25:19;;;;;;;18.52;14.90;;;;;;;19.80;83.10;97363.42;1820536;78;20896;-61
2021/09/17 07:27:46;;;;;;;22.15;16.37;;;;;;;19.92;82.42;97365.94;1820233;78;21485;-62
2021/09/17 07:30:15;;;;;;;19.90;15.15;;;;;;;19.96;81.94;97362.70;1821086;78;20955;-62
2021/09/17 07:32:45;;;;;;;20.57;16.17;;;;;;;20.02;82.06;97361.81;1821335;78;20955;-62
2021/09/17 07:35:13;;;;;;;19.92;15.85;;;;;;;20.08;81.61;97363.05;1821095;78;21319;-62
2021/09/17 07:37:40;;;;;;;16.80;14.98;;;;;;;20.11;81.24;97356.33;1821427;78;21677;-62
2021/09/17 07:40:13;;;;;;;19.00;15.10;;;;;;;20.17;81.13;97357.56;1820523;78;20903;-65
2021/09/17 07:42:38;;;;;;;18.32;15.15;;;;;;;20.20;80.74;97357.41;1820327;78;21107;-67
2021/09/17 07:45:06;;;;;;;18.02;15.75;;;;;;;20.25;80.76;97347.61;1819819;78;21055;-63
2021/09/17 07:47:33;;;;;;;20.17;15.38;;;;;;;20.34;80.27;97344.03;1820591;78;21028;-63
2021/09/17 07:50:00;;;;;;;23.07;15.70;;;;;;;20.42;79.70;97348.39;1818605;77;21821;-63
2021/09/17 07:52:28;;;;;;;16.77;14.73;;;;;;;20.49;79.61;97345.00;1807832;77;21033;-63
2021/09/17 07:54:56;;;;;;;19.10;14.83;;;;;;;20.57;79.39;97348.00;1825090;77;20871;-64
2021/09/17 07:57:23;;;;;;;17.75;14.28;;;;;;;20.58;78.84;97338.70;1802556;77;20895;-64
2021/09/17 07:59:50;;;;;;;16.37;13.78;;;;;;;20.60;78.54;97337.74;1794756;77;21028;-66
2021/09/17 08:02:17;;;;;;;18.32;14.30;;;;;;;20.65;78.34;97339.57;1807220;77;21121;-64
2021/09/17 08:04:44;;;;;;;21.55;15.00;;;;;;;20.68;78.08;97332.00;1809202;78;20942;-64
2021/09/17 08:07:11;;;;;;;17.82;14.65;;;;;;;20.72;77.87;97333.42;1800715;77;20950;-62
2021/09/17 08:09:40;;;;;;;19.17;13.88;;;;;;;20.72;77.67;97330.70;1812096;77;21010;-63
2021/09/17 08:12:09;;;;;;;19.62;14.20;;;;;;;20.70;77.83;97332.44;1776298;80;21413;-65
2021/09/17 08:14:41;;;;;;;20.50;15.23;;;;;;;20.70;77.66;97333.02;1817254;78;21095;-63
2021/09/17 08:17:10;;;;;;;17.57;15.25;;;;;;;20.71;77.56;97325.04;1820162;78;20915;-63
2021/09/17 08:19:37;;;;;;;23.65;15.32;;;;;;;20.75;77.42;97328.60;1810448;77;20928;-62
2021/09/17 08:22:04;;;;;;;20.08;14.87;;;;;;;20.77;77.39;97324.93;1816463;78;20971;-62
2021/09/17 08:24:31;;;;;;;18.62;14.40;;;;;;;20.79;77.16;97326.70;1813488;78;21432;-61
2021/09/17 08:27:00;;;;;;;17.00;14.83;;;;;;;20.80;77.32;97328.25;1819666;78;21239;-61
2021/09/17 08:29:29;;;;;;;21.25;15.25;;;;;;;20.77;76.71;97326.29;1814072;78;21506;-63
2021/09/17 08:31:59;;;;;;;18.12;15.05;;;;;;;20.73;76.81;97318.64;1807518;77;21043;-62
2021/09/17 08:34:26;;;;;;;19.37;15.30;;;;;;;20.71;76.72;97308.14;1810744;78;20845;-62
2021/09/17 08:36:55;;;;;;;21.20;15.03;;;;;;;20.75;76.84;97313.03;1821540;78;20911;-62
2021/09/17 08:39:22;;;;;;;21.42;15.68;;;;;;;20.84;76.77;97310.04;1821371;78;21241;-62
2021/09/17 08:41:50;;;;;;;16.65;14.13;;;;;;;20.92;76.67;97308.94;1819683;78;21002;-62
2021/09/17 08:44:17;;;;;;;19.55;14.95;;;;;;;21.01;76.65;97306.69;1820013;78;21046;-62
2021/09/17 08:46:46;;;;;;;18.85;14.50;;;;;;;21.10;76.36;97307.22;1820687;77;20978;-62
2021/09/17 08:49:14;;;;;;;23.70;16.15;;;;;;;21.15;75.92;97310.19;1819713;78;21109;-62
2021/09/17 08:51:45;;;;;;;19.62;15.08;;;;;;;21.14;75.94;97308.03;1820669;77;21466;-63
2021/09/17 08:54:12;;;;;;;16.55;14.07;;;;;;;21.16;75.77;97312.52;1820940;78;20928;-62
2021/09/17 08:56:39;;;;;;;15.35;13.10;;;;;;;21.14;75.08;97308.03;1815909;78;20979;-62
2021/09/17 08:59:07;;;;;;;18.77;12.82;;;;;;;21.13;75.33;97303.16;1803267;78;21006;-62
2021/09/17 09:01:36;;;;;;;14.87;13.32;;;;;;;21.22;74.89;97306.92;1821095;78;21471;-61
2021/09/17 09:04:07;;;;;;;20.27;13.53;;;;;;;21.42;74.45;97302.83;1815841;77;21088;-62
2021/09/17 09:06:41;;;;;;;19.62;13.05;;;;;;;21.73;73.90;97302.30;1820952;78;21058;-62
2021/09/17 09:09:19;;;;;;;16.65;13.80;;;;;;;22.03;73.46;97302.12;1820294;77;21035;-61
2021/09/17 09:11:49;;;;;;;17.42;14.07;;;;;;;22.18;70.69;97292.07;1814386;78;20870;-61
2021/09/17 09:14:18;;;;;;;17.85;13.83;;;;;;;22.08;70.37;97290.06;1815114;77;21006;-61
2021/09/17 09:16:48;;;;;;;16.30;12.85;;;;;;;21.99;70.84;97297.80;1820201;78;21120;-60
2021/09/17 09:19:34;;;;;;;41.58;14.85;;;;;;;22.03;70.63;97290.42;1819972;77;21125;-61
2021/09/17 09:22:09;;;;;;;20.40;13.15;;;;;;;22.16;70.87;97290.31;1820045;78;20886;-62
2021/09/17 09:24:42;;;;;;;17.35;12.65;;;;;;;22.33;70.87;97291.74;1818132;78;20857;-63
2021/09/17 09:27:18;;;;;;;17.57;11.93;;;;;;;22.43;69.83;97281.47;1821145;78;20949;-60
2021/09/17 09:29:54;;;;;;;13.75;12.10;;;;;;;22.45;69.66;97294.14;1818574;78;21398;-62
2021/09/17 09:32:35;;;;;;;16.07;12.53;;;;;;;22.33;69.21;97280.05;1818968;78;21010;-62
2021/09/17 09:35:07;;;;;;;16.25;13.45;;;;;;;22.24;69.47;97289.16;1818110;77;20943;-61
2021/09/17 09:37:38;;;;;;;13.70;11.88;;;;;;;22.14;69.60;97286.58;1804439;77;21012;-61
2021/09/17 09:40:17;;;;;;;18.23;11.97;;;;;;;22.13;69.65;97286.40;1796963;78;21082;-62
2021/09/17 09:42:53;;;;;;;17.23;12.40;;;;;;;22.18;69.62;97281.16;1782570;79;21517;-61
2021/09/17 09:45:25;;;;;;;14.87;12.58;;;;;;;22.27;69.92;97289.77;1782843;80;21001;-61
2021/09/17 09:47:55;;;;;;;14.78;12.98;;;;;;;22.35;70.00;97285.92;1789469;79;20960;-61
2021/09/17 09:50:28;;;;;;;16.55;13.00;;;;;;;22.41;70.08;97281.65;1815007;78;20901;-62
2021/09/17 09:52:58;;;;;;;19.95;13.40;;;;;;;22.45;69.65;97275.61;1814418;79;21232;-65
2021/09/17 09:55:25;;;;;;;15.58;12.47;;;;;;;22.47;69.70;97272.70;1815248;79;21088;-64
2021/09/17 09:57:54;;;;;;;14.93;12.60;;;;;;;22.50;69.18;97276.61;1788596;77;20932;-63
2021/09/17 10:00:23;;;;;;;15.70;12.40;;;;;;;22.55;69.38;97273.52;1779531;79;20900;-63
2021/09/17 10:02:50;;;;;;;16.80;12.80;;;;;;;22.71;69.10;97271.25;1779485;80;21498;-63
2021/09/17 10:05:19;;;;;;;15.60;11.50;;;;;;;22.79;68.61;97267.38;1780295;80;20955;-62
2021/09/17 10:07:46;;;;;;;63.65;16.05;;;;;;;22.80;68.10;97267.55;1779283;79;21071;-62
2021/09/17 10:10:15;;;;;;;23.27;12.40;;;;;;;22.78;67.85;97268.53;1779933;80;20877;-61
2021/09/17 10:12:44;;;;;;;78.62;16.05;;;;;;;22.82;67.69;97265.83;1779905;79;21067;-60
2021/09/17 10:15:13;;;;;;;23.05;12.90;;;;;;;22.96;68.44;97269.34;1780046;79;21455;-61
2021/09/17 10:17:40;;;;;;;18.77;11.97;;;;;;;23.13;67.54;97266.43;1779878;80;20917;-61
2021/09/17 10:25:24;;;;;;;14.55;11.33;;;;;;;23.33;66.74;97255.91;1778844;79;21071;-62
2021/09/17 10:28:14;;;;;;;12.20;10.23;;;;;;;23.41;66.52;97256.15;1789342;78;21058;-62
2021/09/17 10:30:42;;;;;;;12.50;10.25;;;;;;;23.57;65.69;97253.20;1790539;79;21695;-62
2021/09/17 10:33:27;;;;;;;16.75;10.35;;;;;;;23.72;65.05;97253.94;1790164;80;21059;-62
2021/09/17 10:35:54;;;;;;;13.35;9.95;;;;;;;23.73;64.22;97254.94;1791695;79;20956;-61
2021/09/17 10:38:28;;;;;;;12.88;9.68;;;;;;;23.61;63.27;97254.55;1791543;79;20912;-61
2021/09/17 10:41:04;;;;;;;12.70;10.25;;;;;;;23.47;63.63;97257.30;1791744;80;20856;-61
2021/09/17 10:43:46;;;;;;;11.18;9.68;;;;;;;23.42;63.14;97247.55;1791306;79;20943;-61
2021/09/17 10:46:28;;;;;;;24.90;11.15;;;;;;;23.38;62.70;97252.24;1790254;79;21265;-60
2021/09/17 11:07:55;;;;;;;28.12;11.38;;;;;;;22.94;64.63;97232.09;1871434;76;22646;-61
2021/09/17 11:10:25;;;;;;;14.43;9.68;;;;;;;22.81;64.96;97239.10;1827715;78;20865;-61
2021/09/17 11:13:05;;;;;;;19.15;10.05;;;;;;;22.72;65.57;97235.97;1827706;78;21072;-61
2021/09/17 11:15:32;;;;;;;14.13;9.73;;;;;;;22.72;65.92;97231.09;1827328;78;21497;-60
2021/09/17 11:18:06;;;;;;;14.20;10.10;;;;;;;22.72;66.38;97223.69;1826855;78;20943;-60
2021/09/17 11:20:30;;;;;;;14.00;9.68;;;;;;;22.74;66.29;97226.80;1827273;78;21382;-60
2021/09/17 11:23:20;;;;;;;15.03;10.25;;;;;;;22.68;66.09;97225.61;1822010;78;21040;-59
2021/09/17 11:26:03;;;;;;;15.20;10.25;;;;;;;22.63;66.32;97221.92;1821946;78;20995;-59
2021/09/17 11:28:48;;;;;;;15.53;10.50;;;;;;;22.56;66.63;97221.88;1823144;78;20965;-60
2021/09/17 11:31:17;;;;;;;12.80;10.28;;;;;;;22.54;66.66;97217.97;1823206;78;20897;-60
2021/09/17 11:33:46;;;;;;;12.50;11.20;;;;;;;22.52;66.49;97209.39;1823898;78;20927;-60
2021/09/17 11:36:14;;;;;;;14.25;11.88;;;;;;;22.52;66.55;97206.05;1791092;78;20885;-60
2021/09/17 11:38:41;;;;;;;15.65;12.20;;;;;;;22.53;66.73;97206.27;1824041;78;21527;-60
2021/09/17 11:41:10;;;;;;;15.78;11.60;;;;;;;22.58;67.04;97203.16;1823513;78;20885;-60
2021/09/17 11:43:44;;;;;;;12.82;11.05;;;;;;;22.61;67.34;97203.76;1823933;78;20964;-60
2021/09/17 11:48:59;;;;;;;16.02;11.65;;;;;;;22.56;67.33;97201.98;1767075;81;20997;-60
2021/09/17 11:51:28;;;;;;;18.48;12.95;;;;;;;22.54;66.71;97203.72;1766795;81;21424;-60
2021/09/17 11:53:56;;;;;;;15.08;11.68;;;;;;;22.57;66.99;97197.50;1766747;81;20976;-60
2021/09/17 11:56:23;;;;;;;14.98;11.85;;;;;;;22.59;67.32;97199.25;1756055;81;21023;-60
2021/09/17 11:58:50;;;;;;;16.65;12.28;;;;;;;22.57;67.02;97202.16;1761524;81;20953;-60
2021/09/17 12:01:23;;;;;;;13.48;11.78;;;;;;;22.49;66.82;97201.39;1756235;81;20949;-60
2021/09/17 12:03:54;;;;;;;15.60;11.68;;;;;;;22.36;66.81;97187.89;1753647;81;21125;-60
2021/09/17 12:06:21;;;;;;;18.98;12.37;;;;;;;22.35;67.72;97195.90;1753648;81;20826;-60
2021/09/17 12:08:48;;;;;;;12.70;11.15;;;;;;;22.36;68.11;97190.63;1753851;81;20989;-60
2021/09/17 12:11:24;;;;;;;13.88;11.68;;;;;;;22.42;68.10;97183.64;1756275;81;21008;-60
2021/09/17 12:13:57;;;;;;;15.45;11.48;;;;;;;22.53;67.96;97188.53;1755967;81;21425;-60
2021/09/17 12:16:26;;;;;;;19.27;12.18;;;;;;;22.68;68.09;97184.66;1756368;81;21539;-60
2021/09/17 12:19:05;;;;;;;15.53;12.30;;;;;;;22.87;67.71;97181.57;1755812;81;20917;-60
2021/09/17 12:21:35;;;;;;;14.38;11.88;;;;;;;23.07;67.53;97174.56;1755694;81;21487;-61
2021/09/17 12:24:21;;;;;;;21.48;13.03;;;;;;;23.25;67.21;97175.14;1755644;81;20918;-61
2021/09/17 12:26:57;;;;;;;15.43;12.23;;;;;;;23.30;66.99;97167.89;1756003;81;20942;-62
2021/09/17 12:29:23;;;;;;;;;;;;;;;23.27;67.20;97167.33;1731193;81;21669;-59
2021/09/17 12:31:50;;;;;;;15.83;13.43;;;;;;;23.21;67.41;97164.78;1755737;81;20075;-60
2021/09/17 12:34:21;;;;;;;19.30;13.98;;;;;;;23.06;68.02;97168.89;1755764;81;20965;-59
2021/09/17 12:36:50;;;;;;;13.98;12.47;;;;;;;22.94;68.12;97171.26;1755652;81;20953;-60
2021/09/17 12:39:23;;;;;;;14.80;13.22;;;;;;;22.81;68.23;97164.61;1755444;81;20952;-60
2021/09/17 12:42:10;;;;;;;17.42;13.62;;;;;;;22.67;68.58;97161.87;1755079;81;21159;-60
2021/09/17 12:44:42;;;;;;;18.15;16.17;;;;;;;22.52;68.90;97156.94;1756067;81;20965;-61
2021/09/17 12:47:11;;;;;;;18.23;16.23;;;;;;;22.41;69.31;97156.15;1754098;81;20950;-60
2021/09/17 12:49:38;;;;;;;17.90;14.87;;;;;;;22.30;69.74;97149.90;1748287;82;20890;-61
2021/09/17 12:52:07;;;;;;;15.78;13.78;;;;;;;22.22;70.04;97148.31;1747580;82;21610;-60
2021/09/17 12:54:37;;;;;;;15.55;12.80;;;;;;;22.16;70.08;97149.25;1760729;81;20937;-60
2021/09/17 12:57:18;;;;;;;14.85;12.13;;;;;;;22.08;70.29;97142.81;1760040;81;21025;-60
2021/09/17 13:00:03;;;;;;;19.82;14.30;;;;;;;22.04;70.75;97144.76;1761140;81;21123;-61
2021/09/17 13:02:30;;;;;;;22.22;15.03;;;;;;;21.96;71.24;97143.95;1748119;82;20895;-61
2021/09/17 13:05:03;;;;;;;18.02;14.18;;;;;;;21.90;71.68;97135.16;1748106;82;21475;-61
2021/09/17 13:07:30;;;;;;;18.30;14.13;;;;;;;21.83;72.01;97139.38;1761228;81;21090;-60
2021/09/17 13:09:59;;;;;;;15.53;13.98;;;;;;;21.77;72.10;97135.48;1761506;81;21037;-60
